createdAt,value
2018-04-18T00:01:44.652Z,10.30
2018-04-18T00:04:54.394Z,10.30
2018-04-18T00:08:04.340Z,10.20
2018-04-18T00:11:15.654Z,10.20
2018-04-18T00:14:25.839Z,10.10
2018-04-18T00:17:35.887Z,10.20
2018-04-18T00:20:46.752Z,10.20
2018-04-18T00:23:57.082Z,10.10
2018-04-18T00:27:07.061Z,10.10
2018-04-18T00:30:16.948Z,10.10
2018-04-18T00:33:27.170Z,9.90
2018-04-18T00:36:37.392Z,10.00
2018-04-18T00:39:47.431Z,9.90
2018-04-18T00:42:58.142Z,10.00
2018-04-18T00:46:08.301Z,9.90
2018-04-18T00:49:18.293Z,9.90
2018-04-18T00:52:28.076Z,9.90
2018-04-18T00:55:37.908Z,9.90
2018-04-18T00:58:49.327Z,9.70
2018-04-18T01:01:59.986Z,9.70
2018-04-18T01:05:10.770Z,9.60
2018-04-18T01:08:20.710Z,9.50
2018-04-18T01:11:30.690Z,9.60
2018-04-18T01:14:41.247Z,9.60
2018-04-18T01:17:51.506Z,9.60
2018-04-18T01:21:01.642Z,9.60
2018-04-18T01:24:11.436Z,9.50
2018-04-18T01:27:22.067Z,9.50
2018-04-18T01:30:31.992Z,9.60
2018-04-18T01:33:42.699Z,9.50
2018-04-18T01:36:52.805Z,9.50
2018-04-18T01:40:03.311Z,9.50
2018-04-18T01:43:13.301Z,9.50
2018-04-18T01:46:23.438Z,9.30
2018-04-18T01:49:33.258Z,9.30
2018-04-18T01:52:43.545Z,9.30
2018-04-18T01:55:53.756Z,9.30
2018-04-18T01:59:03.616Z,9.40
2018-04-18T02:02:13.401Z,9.20
2018-04-18T02:05:23.293Z,9.30
2018-04-18T02:08:33.283Z,9.20
2018-04-18T02:11:43.553Z,9.10
2018-04-18T02:14:53.565Z,9.10
2018-04-18T02:18:03.825Z,9.10
2018-04-18T02:21:13.883Z,9.10
2018-04-18T02:24:24.053Z,9.10
2018-04-18T02:27:34.770Z,9.00
2018-04-18T02:30:44.820Z,9.00
2018-04-18T02:33:55.038Z,9.00
2018-04-18T02:37:06.148Z,9.00
2018-04-18T02:40:16.514Z,9.00
2018-04-18T02:43:27.892Z,9.00
2018-04-18T02:46:38.622Z,9.00
2018-04-18T02:49:48.621Z,9.00
2018-04-18T02:52:59.251Z,9.00
2018-04-18T02:56:09.312Z,9.00
2018-04-18T02:59:19.157Z,9.00
2018-04-18T03:02:29.735Z,9.00
2018-04-18T03:05:39.701Z,9.00
2018-04-18T03:08:49.656Z,8.90
2018-04-18T03:11:59.595Z,9.00
2018-04-18T03:15:09.652Z,8.90
2018-04-18T03:18:20.570Z,9.00
2018-04-18T03:21:31.094Z,9.00
2018-04-18T03:24:41.110Z,8.90
2018-04-18T03:27:51.019Z,8.80
2018-04-18T03:31:01.718Z,8.90
2018-04-18T03:34:13.424Z,8.90
2018-04-18T03:37:23.738Z,8.80
2018-04-18T03:40:34.188Z,8.80
2018-04-18T03:43:44.718Z,8.80
2018-04-18T03:46:55.423Z,8.80
2018-04-18T03:50:06.221Z,8.70
2018-04-18T03:53:17.194Z,8.70
2018-04-18T03:56:27.921Z,8.70
2018-04-18T03:59:38.237Z,8.70
2018-04-18T04:02:48.087Z,8.70
2018-04-18T04:05:58.413Z,8.60
2018-04-18T04:09:08.485Z,8.60
2018-04-18T04:12:18.538Z,8.60
2018-04-18T04:15:28.817Z,8.60
2018-04-18T04:18:49.909Z,8.60
2018-04-18T04:22:11.811Z,8.60
2018-04-18T04:25:22.358Z,8.50
2018-04-18T04:28:33.914Z,8.50
2018-04-18T04:31:43.842Z,8.50
2018-04-18T04:34:53.645Z,8.50
2018-04-18T04:38:03.616Z,8.50
2018-04-18T04:41:13.594Z,8.50
2018-04-18T04:44:23.455Z,8.50
2018-04-18T04:47:33.296Z,8.50
2018-04-18T04:50:43.356Z,8.60
2018-04-18T04:53:54.002Z,8.60
2018-04-18T04:57:04.186Z,8.60
2018-04-18T05:00:14.302Z,8.70
2018-04-18T05:03:24.122Z,8.70
2018-04-18T05:06:34.245Z,8.70
2018-04-18T05:09:45.604Z,8.80
2018-04-18T05:12:55.713Z,8.70
2018-04-18T05:16:05.845Z,8.80
2018-04-18T05:19:15.708Z,8.90
2018-04-18T05:22:25.625Z,8.90
2018-04-18T05:25:35.465Z,9.00
2018-04-18T05:28:45.310Z,9.10
2018-04-18T05:31:55.422Z,9.20
2018-04-18T05:35:05.250Z,9.30
2018-04-18T05:38:15.254Z,9.30
2018-04-18T05:41:25.892Z,9.40
2018-04-18T05:44:36.260Z,9.50
2018-04-18T05:47:46.291Z,9.60
2018-04-18T05:50:56.386Z,9.70
2018-04-18T05:54:06.302Z,9.80
2018-04-18T05:57:17.138Z,10.10
2018-04-18T06:00:27.278Z,10.10
2018-04-18T06:03:37.255Z,10.30
2018-04-18T06:06:47.215Z,10.40
2018-04-18T06:09:57.077Z,10.50
2018-04-18T06:13:07.822Z,10.70
2018-04-18T06:16:17.747Z,10.60
2018-04-18T06:19:29.144Z,10.80
2018-04-18T06:22:39.370Z,10.80
2018-04-18T06:25:49.400Z,11.00
2018-04-18T06:28:59.357Z,11.10
2018-04-18T06:32:09.329Z,11.20
2018-04-18T06:35:19.508Z,11.40
2018-04-18T06:38:29.646Z,11.50
2018-04-18T06:41:40.258Z,11.60
2018-04-18T06:44:50.111Z,11.70
2018-04-18T06:48:00.209Z,11.80
2018-04-18T06:51:10.472Z,12.00
2018-04-18T06:54:21.103Z,12.30
2018-04-18T06:57:31.173Z,12.30
2018-04-18T07:00:41.270Z,12.40
2018-04-18T07:03:50.991Z,12.50
2018-04-18T07:07:00.958Z,12.70
2018-04-18T07:10:10.903Z,12.90
2018-04-18T07:13:21.488Z,13.20
2018-04-18T07:16:31.951Z,13.20
2018-04-18T07:19:41.681Z,13.40
2018-04-18T07:22:51.974Z,13.50
2018-04-18T07:26:02.117Z,13.70
2018-04-18T07:29:12.118Z,13.90
2018-04-18T07:32:22.042Z,13.90
2018-04-18T07:35:32.640Z,14.10
2018-04-18T07:38:43.515Z,14.40
2018-04-18T07:41:53.896Z,14.40
2018-04-18T07:45:04.241Z,14.70
2018-04-18T07:48:14.816Z,14.70
2018-04-18T07:51:24.693Z,14.90
2018-04-18T07:54:35.586Z,15.10
2018-04-18T07:57:45.382Z,15.30
2018-04-18T08:00:55.556Z,15.40
2018-04-18T08:04:06.422Z,15.60
2018-04-18T08:07:16.613Z,15.70
2018-04-18T08:10:27.455Z,16.10
2018-04-18T08:13:37.847Z,16.10
2018-04-18T08:16:47.606Z,16.20
2018-04-18T08:19:57.948Z,16.40
2018-04-18T08:23:07.742Z,16.60
2018-04-18T08:26:17.896Z,16.70
2018-04-18T08:29:27.880Z,16.80
2018-04-18T08:32:37.925Z,16.90
2018-04-18T08:35:47.999Z,17.10
2018-04-18T08:38:58.194Z,17.20
2018-04-18T08:42:08.110Z,17.30
2018-04-18T08:45:18.823Z,17.40
2018-04-18T08:48:28.556Z,17.50
2018-04-18T08:51:39.284Z,17.70
2018-04-18T08:54:49.833Z,17.60
2018-04-18T08:57:59.701Z,17.70
2018-04-18T09:01:09.493Z,17.90
2018-04-18T09:04:20.237Z,17.90
2018-04-18T09:07:31.190Z,18.00
2018-04-18T09:10:41.439Z,17.90
2018-04-18T09:13:51.637Z,18.10
2018-04-18T09:17:02.284Z,18.50
2018-04-18T09:20:12.751Z,18.40
2018-04-18T09:23:22.594Z,18.90
2018-04-18T09:26:32.588Z,19.10
2018-04-18T09:29:43.306Z,19.30
2018-04-18T09:32:53.771Z,19.40
2018-04-18T09:36:05.358Z,19.60
2018-04-18T09:39:16.350Z,19.80
2018-04-18T09:42:26.465Z,19.70
2018-04-18T09:45:36.752Z,19.90
2018-04-18T09:48:46.556Z,20.10
2018-04-18T09:51:56.546Z,20.00
2018-04-18T09:55:07.047Z,20.20
2018-04-18T09:58:17.070Z,20.30
2018-04-18T10:01:32.737Z,20.30
2018-04-18T10:04:44.777Z,20.50
2018-04-18T10:07:54.841Z,20.50
2018-04-18T10:11:05.067Z,20.70
2018-04-18T10:14:14.906Z,20.70
2018-04-18T10:17:26.377Z,20.80
2018-04-18T10:20:36.726Z,20.80
2018-04-18T10:23:46.535Z,20.90
2018-04-18T10:26:56.330Z,21.00
2018-04-18T10:30:06.562Z,21.00
2018-04-18T10:33:16.693Z,20.90
2018-04-18T10:36:26.455Z,21.10
2018-04-18T10:39:36.399Z,21.10
2018-04-18T10:42:47.392Z,21.30
2018-04-18T10:45:57.540Z,21.30
2018-04-18T10:49:08.105Z,21.20
2018-04-18T10:52:17.831Z,21.50
2018-04-18T10:55:27.772Z,21.60
2018-04-18T10:58:37.659Z,21.50
2018-04-18T11:01:48.406Z,21.50
2018-04-18T11:04:58.155Z,21.60
2018-04-18T11:08:08.726Z,21.30
2018-04-18T11:11:19.021Z,21.30
2018-04-18T11:14:29.734Z,21.60
2018-04-18T11:17:39.730Z,21.80
2018-04-18T11:20:49.504Z,21.80
2018-04-18T11:23:59.841Z,22.00
2018-04-18T11:27:10.127Z,21.90
2018-04-18T11:30:20.475Z,21.70
2018-04-18T11:33:30.491Z,22.00
2018-04-18T11:36:40.398Z,22.10
2018-04-18T11:39:51.172Z,22.00
2018-04-18T11:43:01.477Z,22.00
2018-04-18T11:46:12.060Z,22.00
2018-04-18T11:49:21.929Z,22.10
2018-04-18T11:52:31.925Z,22.30
2018-04-18T11:55:42.653Z,22.40
2018-04-18T11:58:53.165Z,22.40
2018-04-18T12:02:03.555Z,22.50
2018-04-18T12:05:13.414Z,22.60
2018-04-18T12:08:23.497Z,22.60
2018-04-18T12:11:33.575Z,22.70
2018-04-18T12:14:43.674Z,22.80
2018-04-18T12:17:54.614Z,23.10
2018-04-18T12:21:05.276Z,22.80
2018-04-18T12:24:15.752Z,22.80
2018-04-18T12:27:26.393Z,23.00
2018-04-18T12:30:36.501Z,23.10
2018-04-18T12:33:46.563Z,23.20
2018-04-18T12:36:56.753Z,23.50
2018-04-18T12:40:06.719Z,23.70
2018-04-18T12:43:17.131Z,23.20
2018-04-18T12:46:26.714Z,23.20
2018-04-18T12:49:36.609Z,23.60
2018-04-18T12:52:46.651Z,23.80
2018-04-18T12:55:56.420Z,23.90
2018-04-18T12:59:06.333Z,23.70
2018-04-18T13:02:16.199Z,23.80
2018-04-18T13:05:27.304Z,23.90
2018-04-18T13:08:37.411Z,23.90
2018-04-18T13:11:47.504Z,23.80
2018-04-18T13:14:57.306Z,24.20
2018-04-18T13:18:08.299Z,24.40
2018-04-18T13:21:18.108Z,24.40
2018-04-18T13:24:27.982Z,24.20
2018-04-18T13:27:37.956Z,24.30
2018-04-18T13:30:47.817Z,24.20
2018-04-18T13:33:57.908Z,23.70
2018-04-18T13:37:07.947Z,23.60
2018-04-18T13:40:17.469Z,23.80
2018-04-18T13:43:27.546Z,24.00
2018-04-18T13:46:37.535Z,24.10
2018-04-18T13:49:47.445Z,24.10
2018-04-18T13:52:58.256Z,24.60
2018-04-18T13:56:08.838Z,24.40
2018-04-18T13:59:19.710Z,24.40
2018-04-18T14:02:29.854Z,24.40
2018-04-18T14:05:40.580Z,24.40
2018-04-18T14:08:51.889Z,24.00
2018-04-18T14:12:02.205Z,24.30
2018-04-18T14:15:13.176Z,24.40
2018-04-18T14:18:23.186Z,24.10
2018-04-18T14:21:34.426Z,24.10
2018-04-18T14:24:45.104Z,24.10
2018-04-18T14:27:55.159Z,24.10
2018-04-18T14:31:05.115Z,24.20
2018-04-18T14:34:15.152Z,24.10
2018-04-18T14:37:25.607Z,24.30
2018-04-18T14:40:35.575Z,24.20
2018-04-18T14:43:45.498Z,24.50
2018-04-18T14:46:57.705Z,24.10
2018-04-18T14:50:08.508Z,24.00
2018-04-18T14:53:18.371Z,24.00
2018-04-18T14:56:28.055Z,24.00
2018-04-18T14:59:38.405Z,23.90
2018-04-18T15:02:48.578Z,23.90
2018-04-18T15:05:58.590Z,24.00
2018-04-18T15:09:09.080Z,23.90
2018-04-18T15:12:19.230Z,23.90
2018-04-18T15:15:29.695Z,23.90
2018-04-18T15:18:39.989Z,23.90
2018-04-18T15:21:49.851Z,24.10
2018-04-18T15:24:59.685Z,24.00
2018-04-18T15:28:09.523Z,24.20
2018-04-18T15:31:19.188Z,24.00
2018-04-18T15:34:29.459Z,23.80
2018-04-18T15:37:39.320Z,23.50
2018-04-18T15:40:49.087Z,23.60
2018-04-18T15:43:59.345Z,23.30
2018-04-18T15:47:11.952Z,23.30
2018-04-18T15:50:22.966Z,23.30
2018-04-18T15:53:33.154Z,23.30
2018-04-18T15:56:43.129Z,23.50
2018-04-18T15:59:53.058Z,23.50
2018-04-18T16:03:03.105Z,23.30
2018-04-18T16:06:13.230Z,23.30
2018-04-18T16:09:23.664Z,23.20
2018-04-18T16:12:33.569Z,23.30
2018-04-18T16:15:47.805Z,23.30
2018-04-18T16:18:58.931Z,23.40
2018-04-18T16:22:08.850Z,23.30
2018-04-18T16:25:18.542Z,23.20
2018-04-18T16:28:31.295Z,22.90
2018-04-18T16:31:41.995Z,22.70
2018-04-18T16:34:52.686Z,22.40
2018-04-18T16:38:02.587Z,22.30
2018-04-18T16:41:13.110Z,22.10
2018-04-18T16:44:24.677Z,21.80
2018-04-18T16:47:35.138Z,21.70
2018-04-18T16:50:45.828Z,21.60
2018-04-18T16:53:56.105Z,21.40
2018-04-18T16:57:06.672Z,21.30
2018-04-18T17:00:18.362Z,21.00
2018-04-18T17:03:29.214Z,21.00
2018-04-18T17:06:40.052Z,20.80
2018-04-18T17:09:50.048Z,20.80
2018-04-18T17:13:00.043Z,20.70
2018-04-18T17:16:09.955Z,20.60
2018-04-18T17:19:19.714Z,20.50
2018-04-18T17:22:29.918Z,20.30
2018-04-18T17:25:39.946Z,20.20
2018-04-18T17:28:50.719Z,20.10
2018-04-18T17:32:00.669Z,20.00
2018-04-18T17:35:11.355Z,19.90
2018-04-18T17:38:21.336Z,19.80
2018-04-18T17:41:31.288Z,19.80
2018-04-18T17:44:41.533Z,19.70
2018-04-18T17:47:52.162Z,19.50
2018-04-18T17:51:02.409Z,19.50
2018-04-18T17:54:12.197Z,19.30
2018-04-18T17:57:22.065Z,19.10
2018-04-18T18:00:32.265Z,19.00
2018-04-18T18:03:42.956Z,18.80
2018-04-18T18:06:52.992Z,18.70
2018-04-18T18:10:03.096Z,18.70
2018-04-18T18:13:14.959Z,18.40
2018-04-18T18:16:25.736Z,18.30
2018-04-18T18:19:35.762Z,18.00
2018-04-18T18:22:46.092Z,17.80
2018-04-18T18:25:56.534Z,17.70
2018-04-18T18:29:06.940Z,17.50
2018-04-18T18:32:17.476Z,17.20
2018-04-18T18:35:29.146Z,17.00
2018-04-18T18:38:39.563Z,17.00
2018-04-18T18:41:50.226Z,16.90
2018-04-18T18:45:00.349Z,16.70
2018-04-18T18:48:11.142Z,16.50
2018-04-18T18:51:21.543Z,16.40
2018-04-18T18:54:31.996Z,16.30
2018-04-18T18:57:42.241Z,16.30
2018-04-18T19:00:52.749Z,16.30
2018-04-18T19:04:03.287Z,16.00
2018-04-18T19:07:13.409Z,15.90
2018-04-18T19:10:23.866Z,15.80
2018-04-18T19:13:33.842Z,15.40
2018-04-18T19:16:43.951Z,15.40
2018-04-18T19:19:54.197Z,15.30
2018-04-18T19:23:04.545Z,15.10
2018-04-18T19:26:14.574Z,15.00
2018-04-18T19:29:24.708Z,15.10
2018-04-18T19:32:34.511Z,15.10
2018-04-18T19:35:44.871Z,14.90
2018-04-18T19:38:54.981Z,15.00
2018-04-18T19:42:04.654Z,14.80
2018-04-18T19:45:15.259Z,14.60
2018-04-18T19:48:25.059Z,14.50
2018-04-18T19:51:35.390Z,14.50
2018-04-18T19:54:45.464Z,14.50
2018-04-18T19:57:55.661Z,14.40
2018-04-18T20:01:06.206Z,14.40
2018-04-18T20:04:16.349Z,14.40
2018-04-18T20:07:27.057Z,14.50
2018-04-18T20:10:37.359Z,14.40
2018-04-18T20:13:47.779Z,14.10
2018-04-18T20:16:58.717Z,14.10
2018-04-18T20:20:09.612Z,14.00
2018-04-18T20:23:19.646Z,13.90
2018-04-18T20:26:30.211Z,13.90
2018-04-18T20:29:41.408Z,13.90
2018-04-18T20:32:51.257Z,13.90
2018-04-18T20:36:02.340Z,14.00
2018-04-18T20:39:12.468Z,14.00
2018-04-18T20:42:22.757Z,14.00
2018-04-18T20:45:32.607Z,13.90
2018-04-18T20:48:43.221Z,13.80
2018-04-18T20:51:53.871Z,13.80
2018-04-18T20:55:04.057Z,13.70
2018-04-18T20:58:14.110Z,13.60
2018-04-18T21:01:25.916Z,13.30
2018-04-18T21:04:35.840Z,13.30
2018-04-18T21:07:46.158Z,13.20
2018-04-18T21:10:56.766Z,12.90
2018-04-18T21:14:07.833Z,12.90
2018-04-18T21:17:17.551Z,12.70
2018-04-18T21:20:27.516Z,12.70
2018-04-18T21:23:38.181Z,12.60
2018-04-18T21:26:48.456Z,12.60
2018-04-18T21:29:59.872Z,12.70
2018-04-18T21:33:10.630Z,12.70
2018-04-18T21:36:20.930Z,12.60
2018-04-18T21:39:31.909Z,12.70
2018-04-18T21:42:41.798Z,12.50
2018-04-18T21:45:52.062Z,12.50
2018-04-18T21:49:02.920Z,12.50
2018-04-18T21:52:13.266Z,12.50
2018-04-18T21:55:24.006Z,12.40
2018-04-18T21:58:34.013Z,12.30
2018-04-18T22:01:44.246Z,12.20
2018-04-18T22:04:55.782Z,12.10
2018-04-18T22:08:05.957Z,12.10
2018-04-18T22:11:16.300Z,12.10
2018-04-18T22:14:27.639Z,11.90
2018-04-18T22:17:37.952Z,11.80
2018-04-18T22:20:47.721Z,11.90
2018-04-18T22:23:58.700Z,11.80
2018-04-18T22:27:09.738Z,11.80
2018-04-18T22:30:20.263Z,11.80
2018-04-18T22:33:30.752Z,11.80
2018-04-18T22:36:40.898Z,11.80
2018-04-18T22:39:51.451Z,11.90
2018-04-18T22:43:02.134Z,11.90
2018-04-18T22:46:12.140Z,11.80
2018-04-18T22:49:22.659Z,11.90
2018-04-18T22:52:32.748Z,11.80
2018-04-18T22:55:42.792Z,11.70
2018-04-18T22:58:53.959Z,11.40
2018-04-18T23:02:04.255Z,11.40
2018-04-18T23:05:15.609Z,11.40
2018-04-18T23:08:26.540Z,11.40
2018-04-18T23:11:37.551Z,11.20
2018-04-18T23:14:48.424Z,11.20
2018-04-18T23:17:58.250Z,11.20
2018-04-18T23:21:08.407Z,11.10
2018-04-18T23:24:18.781Z,11.00
2018-04-18T23:27:29.209Z,10.90
2018-04-18T23:30:39.096Z,10.80
2018-04-18T23:33:49.261Z,10.80
2018-04-18T23:36:59.847Z,10.60
2018-04-18T23:40:09.910Z,10.50
2018-04-18T23:43:20.376Z,10.70
2018-04-18T23:46:30.641Z,10.70
2018-04-18T23:49:41.871Z,10.70
2018-04-18T23:52:52.306Z,10.70
2018-04-18T23:56:02.326Z,10.60
2018-04-18T23:59:12.987Z,10.70
